createdAt,value
2023-08-16T00:01:32.082Z,99.90
2023-08-16T00:03:59.014Z,99.90
2023-08-16T00:06:25.977Z,99.90
2023-08-16T00:08:54.466Z,99.90
2023-08-16T00:11:21.384Z,99.90
2023-08-16T00:13:48.440Z,99.90
2023-08-16T00:16:15.238Z,99.90
2023-08-16T00:18:42.242Z,99.90
2023-08-16T00:21:09.168Z,99.90
2023-08-16T00:23:35.984Z,99.90
2023-08-16T00:26:02.758Z,99.90
2023-08-16T00:28:29.709Z,99.90
2023-08-16T00:30:57.180Z,99.90
2023-08-16T00:33:24.100Z,99.90
2023-08-16T00:35:53.711Z,99.90
2023-08-16T00:38:21.185Z,99.90
2023-08-16T00:40:49.922Z,99.90
2023-08-16T00:43:17.118Z,99.90
2023-08-16T00:45:45.821Z,99.90
2023-08-16T00:48:14.307Z,99.90
2023-08-16T00:50:41.515Z,99.90
2023-08-16T00:53:09.630Z,99.90
2023-08-16T00:55:37.039Z,99.90
2023-08-16T00:58:04.037Z,99.90
2023-08-16T01:00:31.024Z,99.90
2023-08-16T01:02:57.869Z,99.90
2023-08-16T01:05:24.764Z,99.90
2023-08-16T01:07:52.822Z,99.90
2023-08-16T01:10:23.418Z,99.90
2023-08-16T01:13:06.218Z,99.90
2023-08-16T01:15:38.235Z,99.90
2023-08-16T01:18:05.793Z,99.90
2023-08-16T01:20:33.525Z,99.90
2023-08-16T01:23:07.846Z,99.90
2023-08-16T01:25:45.177Z,99.90
2023-08-16T01:28:13.190Z,99.90
2023-08-16T01:30:43.456Z,99.90
2023-08-16T01:33:11.501Z,99.90
2023-08-16T01:35:39.392Z,99.90
2023-08-16T01:38:08.436Z,99.90
2023-08-16T01:41:14.303Z,99.90
2023-08-16T01:43:45.199Z,99.90
2023-08-16T01:46:12.563Z,99.90
2023-08-16T01:48:39.918Z,99.90
2023-08-16T01:51:07.534Z,99.90
2023-08-16T01:53:35.266Z,99.90
2023-08-16T01:56:02.576Z,99.90
2023-08-16T01:58:29.474Z,99.90
2023-08-16T02:00:56.345Z,99.90
2023-08-16T02:03:23.441Z,99.90
2023-08-16T02:05:50.477Z,99.90
2023-08-16T02:08:17.238Z,99.90
2023-08-16T02:10:44.130Z,99.90
2023-08-16T02:13:11.009Z,99.90
2023-08-16T02:15:37.929Z,99.90
2023-08-16T02:18:07.481Z,99.90
2023-08-16T02:20:34.253Z,99.90
2023-08-16T02:23:02.072Z,99.90
2023-08-16T02:25:29.343Z,99.90
2023-08-16T02:27:56.228Z,99.90
2023-08-16T02:30:22.943Z,99.90
2023-08-16T02:32:49.775Z,99.90
2023-08-16T02:35:16.749Z,99.90
2023-08-16T02:37:43.986Z,99.90
2023-08-16T02:40:11.311Z,99.90
2023-08-16T02:42:38.221Z,99.90
2023-08-16T02:45:05.483Z,99.90
2023-08-16T02:47:32.347Z,99.90
2023-08-16T02:49:59.148Z,99.90
2023-08-16T02:52:25.871Z,99.90
2023-08-16T02:54:52.729Z,99.90
2023-08-16T02:57:19.701Z,99.90
2023-08-16T02:59:49.386Z,99.90
2023-08-16T03:06:04.663Z,99.90
2023-08-16T03:08:31.412Z,99.90
2023-08-16T03:10:58.222Z,99.90
2023-08-16T03:13:25.087Z,99.90
2023-08-16T03:15:51.920Z,99.90
2023-08-16T03:18:18.632Z,99.90
2023-08-16T03:20:45.857Z,99.90
2023-08-16T03:23:12.519Z,99.90
2023-08-16T03:25:39.291Z,99.90
2023-08-16T03:28:06.349Z,99.90
2023-08-16T03:30:33.235Z,99.90
2023-08-16T03:33:00.065Z,99.90
2023-08-16T03:35:26.892Z,99.90
2023-08-16T03:37:53.720Z,99.90
2023-08-16T03:40:20.606Z,99.90
2023-08-16T03:42:48.116Z,99.90
2023-08-16T03:45:14.855Z,99.90
2023-08-16T03:47:42.114Z,99.90
2023-08-16T03:50:09.288Z,99.90
2023-08-16T03:52:36.092Z,99.90
2023-08-16T03:55:03.803Z,99.90
2023-08-16T03:57:30.470Z,99.90
2023-08-16T03:59:57.155Z,99.90
2023-08-16T04:02:24.020Z,99.90
2023-08-16T04:04:54.821Z,99.90
2023-08-16T04:07:21.864Z,99.90
2023-08-16T04:09:48.790Z,99.90
2023-08-16T04:12:15.643Z,99.90
2023-08-16T04:14:42.482Z,99.90
2023-08-16T04:17:09.255Z,99.90
2023-08-16T04:19:36.087Z,99.90
2023-08-16T04:22:03.122Z,99.90
2023-08-16T04:24:29.982Z,99.90
2023-08-16T04:26:56.649Z,99.90
2023-08-16T04:29:23.605Z,99.90
2023-08-16T04:31:50.656Z,99.90
2023-08-16T04:34:17.572Z,99.90
2023-08-16T04:36:44.426Z,99.90
2023-08-16T04:39:11.422Z,99.90
2023-08-16T04:41:38.121Z,99.90
2023-08-16T04:44:05.563Z,99.90
2023-08-16T04:46:32.342Z,99.90
2023-08-16T04:48:59.072Z,99.90
2023-08-16T04:51:25.837Z,99.90
2023-08-16T04:53:52.964Z,99.90
2023-08-16T04:56:20.035Z,99.90
2023-08-16T04:58:46.813Z,99.90
2023-08-16T05:01:13.660Z,99.90
2023-08-16T05:03:40.515Z,99.90
2023-08-16T05:06:07.563Z,99.90
2023-08-16T05:08:34.409Z,99.90
2023-08-16T05:11:01.242Z,99.90
2023-08-16T05:13:28.074Z,99.90
2023-08-16T05:15:54.883Z,99.90
2023-08-16T05:18:21.831Z,99.90
2023-08-16T05:20:48.645Z,99.90
2023-08-16T05:23:15.464Z,99.90
2023-08-16T05:25:42.191Z,99.90
2023-08-16T05:28:09.085Z,99.90
2023-08-16T05:30:36.194Z,99.90
2023-08-16T05:33:03.608Z,99.90
2023-08-16T05:35:34.539Z,99.90
2023-08-16T05:38:02.024Z,99.90
2023-08-16T05:40:28.918Z,99.90
2023-08-16T05:42:55.782Z,99.90
2023-08-16T05:45:24.240Z,99.90
2023-08-16T05:47:51.104Z,99.90
2023-08-16T05:50:17.975Z,99.90
2023-08-16T05:52:44.735Z,99.90
2023-08-16T05:55:11.503Z,99.90
2023-08-16T05:57:38.341Z,99.90
2023-08-16T06:00:05.614Z,99.90
2023-08-16T06:02:32.520Z,99.90
2023-08-16T06:05:00.258Z,99.90
2023-08-16T06:07:27.807Z,99.90
2023-08-16T06:09:54.565Z,99.90
2023-08-16T06:12:21.411Z,99.90
2023-08-16T06:14:48.205Z,99.90
2023-08-16T06:17:15.021Z,99.90
2023-08-16T06:19:41.931Z,99.90
2023-08-16T06:22:08.761Z,99.90
2023-08-16T06:24:36.900Z,99.90
2023-08-16T06:27:03.864Z,99.90
2023-08-16T06:29:31.081Z,99.90
2023-08-16T06:31:57.903Z,99.90
2023-08-16T06:34:25.560Z,99.90
2023-08-16T06:36:52.475Z,99.90
2023-08-16T06:39:19.253Z,99.90
2023-08-16T06:41:46.171Z,99.90
2023-08-16T06:44:12.957Z,99.90
2023-08-16T06:46:39.907Z,99.90
2023-08-16T06:49:06.856Z,99.90
2023-08-16T06:51:33.772Z,99.90
2023-08-16T06:54:00.436Z,99.90
2023-08-16T06:56:27.225Z,99.90
2023-08-16T06:58:54.326Z,99.90
2023-08-16T07:01:21.216Z,99.90
2023-08-16T07:03:49.431Z,99.90
2023-08-16T07:06:16.390Z,99.90
2023-08-16T07:08:43.380Z,99.90
2023-08-16T07:11:10.226Z,99.90
2023-08-16T07:13:37.100Z,99.90
2023-08-16T07:16:04.089Z,99.90
2023-08-16T07:18:30.872Z,99.90
2023-08-16T07:20:57.779Z,99.90
2023-08-16T07:23:24.662Z,99.90
2023-08-16T07:26:00.561Z,99.90
2023-08-16T07:28:27.497Z,99.90
2023-08-16T07:30:55.351Z,99.90
2023-08-16T07:33:23.233Z,99.90
2023-08-16T07:35:50.864Z,99.90
2023-08-16T07:38:17.860Z,99.90
2023-08-16T07:40:48.896Z,99.90
2023-08-16T07:43:16.342Z,99.90
2023-08-16T07:45:43.148Z,99.90
2023-08-16T07:48:10.012Z,99.90
2023-08-16T07:50:37.721Z,99.90
2023-08-16T07:53:04.816Z,99.90
2023-08-16T07:55:35.100Z,99.90
2023-08-16T07:58:02.013Z,99.90
2023-08-16T08:00:28.897Z,99.90
2023-08-16T08:03:00.410Z,99.90
2023-08-16T08:05:28.032Z,99.90
2023-08-16T08:07:55.190Z,99.90
2023-08-16T08:10:22.115Z,99.90
2023-08-16T08:12:49.012Z,99.90
2023-08-16T08:15:16.049Z,99.90
2023-08-16T08:17:42.917Z,99.90
2023-08-16T08:20:10.414Z,99.90
2023-08-16T08:22:37.383Z,99.90
2023-08-16T08:25:05.584Z,99.90
2023-08-16T08:27:32.539Z,99.90
2023-08-16T08:29:59.408Z,99.90
2023-08-16T08:32:26.506Z,99.90
2023-08-16T08:34:53.505Z,99.90
2023-08-16T08:37:20.477Z,99.90
2023-08-16T08:39:47.364Z,99.90
2023-08-16T08:42:14.476Z,99.90
2023-08-16T08:44:43.885Z,99.90
2023-08-16T08:47:16.490Z,99.90
2023-08-16T08:49:44.317Z,99.90
2023-08-16T08:52:11.645Z,99.90
2023-08-16T08:54:38.623Z,99.90
2023-08-16T08:57:06.516Z,99.90
2023-08-16T08:59:35.513Z,99.90
2023-08-16T09:02:03.000Z,99.90
2023-08-16T09:04:31.990Z,99.90
2023-08-16T09:07:01.074Z,99.90
2023-08-16T09:09:28.226Z,99.90
2023-08-16T09:11:55.011Z,99.90
2023-08-16T09:14:21.811Z,99.90
2023-08-16T09:16:48.699Z,99.90
2023-08-16T09:19:16.282Z,99.90
2023-08-16T09:21:43.877Z,99.90
2023-08-16T09:24:11.236Z,99.90
2023-08-16T09:26:38.859Z,99.90
2023-08-16T09:29:05.915Z,99.90
2023-08-16T09:31:40.625Z,99.90
2023-08-16T09:34:07.940Z,99.90
2023-08-16T09:36:38.561Z,99.90
2023-08-16T09:39:12.922Z,99.90
2023-08-16T09:41:52.791Z,99.90
2023-08-16T09:44:20.455Z,99.90
2023-08-16T09:49:17.676Z,99.90
2023-08-16T09:54:18.321Z,99.90
2023-08-16T10:04:20.844Z,99.90
2023-08-16T10:09:20.606Z,99.90
2023-08-16T10:11:49.762Z,99.10
2023-08-16T10:14:16.580Z,99.90
2023-08-16T10:16:46.608Z,98.30
2023-08-16T10:19:15.209Z,96.70
2023-08-16T10:21:47.957Z,96.70
2023-08-16T10:24:32.334Z,96.30
2023-08-16T10:27:03.284Z,96.80
2023-08-16T10:29:36.951Z,96.40
2023-08-16T10:32:09.693Z,96.50
2023-08-16T10:34:37.029Z,96.50
2023-08-16T10:37:04.738Z,97.00
2023-08-16T10:39:31.988Z,97.40
2023-08-16T10:42:06.913Z,96.30
2023-08-16T10:44:34.136Z,97.10
2023-08-16T10:47:01.428Z,98.20
2023-08-16T10:49:38.020Z,97.60
2023-08-16T10:52:05.297Z,96.90
2023-08-16T10:54:36.594Z,97.20
2023-08-16T10:57:06.238Z,97.70
2023-08-16T10:59:40.218Z,96.80
2023-08-16T11:02:19.313Z,97.40
2023-08-16T11:04:47.418Z,97.90
2023-08-16T11:07:19.227Z,98.70
2023-08-16T11:09:46.633Z,97.20
2023-08-16T11:12:15.763Z,97.40
2023-08-16T11:14:44.926Z,97.40
2023-08-16T11:17:16.043Z,96.30
2023-08-16T11:19:43.499Z,96.40
2023-08-16T11:22:13.035Z,97.00
2023-08-16T11:24:40.142Z,96.50
2023-08-16T11:27:07.888Z,95.70
2023-08-16T11:29:35.290Z,94.50
2023-08-16T11:32:02.140Z,94.30
2023-08-16T11:34:32.744Z,94.10
2023-08-16T11:36:59.799Z,94.60
2023-08-16T11:39:28.388Z,94.20
2023-08-16T11:41:55.291Z,93.70
2023-08-16T11:44:22.336Z,94.20
2023-08-16T11:46:50.552Z,94.10
2023-08-16T11:49:22.454Z,94.30
2023-08-16T11:51:49.409Z,93.20
2023-08-16T11:54:24.395Z,93.50
2023-08-16T11:56:52.220Z,93.40
2023-08-16T11:59:30.043Z,93.40
2023-08-16T12:01:57.507Z,93.40
2023-08-16T12:04:25.731Z,92.80
2023-08-16T12:06:53.265Z,93.40
2023-08-16T12:09:20.263Z,93.60
2023-08-16T12:11:51.690Z,94.00
2023-08-16T12:14:18.719Z,93.80
2023-08-16T12:16:45.412Z,93.70
2023-08-16T12:19:19.300Z,93.60
2023-08-16T12:21:46.241Z,93.70
2023-08-16T12:24:12.981Z,94.10
2023-08-16T12:26:39.798Z,93.10
2023-08-16T12:29:06.676Z,92.80
2023-08-16T12:31:35.329Z,93.00
2023-08-16T12:34:02.944Z,93.70
2023-08-16T12:36:29.815Z,94.10
2023-08-16T12:38:56.564Z,92.90
2023-08-16T12:41:23.406Z,93.40
2023-08-16T12:43:52.137Z,93.40
2023-08-16T12:46:19.160Z,93.20
2023-08-16T12:48:47.301Z,93.00
2023-08-16T12:51:17.564Z,93.20
2023-08-16T12:53:45.822Z,92.60
2023-08-16T12:56:13.823Z,92.50
2023-08-16T12:58:56.124Z,93.30
2023-08-16T13:01:24.227Z,93.00
2023-08-16T13:06:31.132Z,92.40
2023-08-16T13:11:34.536Z,93.70
2023-08-16T13:14:03.520Z,94.10
2023-08-16T13:16:31.703Z,92.50
2023-08-16T13:24:23.386Z,92.80
2023-08-16T13:29:29.867Z,92.70
2023-08-16T13:32:02.544Z,93.20
2023-08-16T13:37:25.136Z,92.70
2023-08-16T13:42:36.759Z,92.10
2023-08-16T13:47:35.283Z,91.50
2023-08-16T13:50:02.061Z,91.70
2023-08-16T13:52:29.455Z,93.00
2023-08-16T13:54:56.804Z,92.10
2023-08-16T13:57:24.057Z,93.00
2023-08-16T13:59:50.859Z,93.40
2023-08-16T14:02:17.671Z,93.10
2023-08-16T14:04:44.541Z,93.00
2023-08-16T14:07:11.262Z,93.50
2023-08-16T14:09:38.112Z,93.10
2023-08-16T14:12:05.266Z,93.60
2023-08-16T14:14:32.102Z,91.90
2023-08-16T14:16:59.035Z,91.70
2023-08-16T14:19:26.750Z,90.70
2023-08-16T14:21:57.163Z,91.50
2023-08-16T14:24:26.024Z,92.10
2023-08-16T14:26:52.878Z,91.80
2023-08-16T14:29:19.624Z,91.30
2023-08-16T14:31:46.684Z,91.00
2023-08-16T14:34:14.140Z,90.70
2023-08-16T14:36:40.967Z,90.80
2023-08-16T14:39:08.497Z,90.70
2023-08-16T14:41:35.259Z,90.50
2023-08-16T14:44:02.032Z,91.20
2023-08-16T14:46:28.974Z,92.10
2023-08-16T14:48:56.244Z,92.10
2023-08-16T14:51:23.281Z,92.40
2023-08-16T14:53:50.152Z,93.20
2023-08-16T14:56:16.949Z,92.80
2023-08-16T14:58:44.051Z,92.70
2023-08-16T15:01:11.034Z,92.70
2023-08-16T15:03:38.567Z,93.00
2023-08-16T15:06:05.955Z,91.00
2023-08-16T15:08:36.723Z,90.30
2023-08-16T15:11:20.253Z,88.80
2023-08-16T15:13:47.075Z,88.40
2023-08-16T15:16:15.333Z,90.80
2023-08-16T15:18:42.408Z,91.20
2023-08-16T15:21:09.267Z,91.30
2023-08-16T15:23:38.141Z,91.70
2023-08-16T15:26:07.338Z,91.60
2023-08-16T15:28:36.812Z,92.20
2023-08-16T15:31:04.360Z,92.30
2023-08-16T15:33:31.337Z,91.90
2023-08-16T15:35:58.443Z,91.10
2023-08-16T15:38:46.043Z,91.40
2023-08-16T15:41:13.230Z,91.70
2023-08-16T15:43:41.141Z,92.60
2023-08-16T15:46:09.470Z,93.50
2023-08-16T15:48:36.862Z,93.20
2023-08-16T15:51:03.855Z,92.50
2023-08-16T15:53:30.972Z,92.70
2023-08-16T15:55:57.803Z,92.70
2023-08-16T15:58:28.226Z,92.10
2023-08-16T16:01:03.015Z,92.10
2023-08-16T16:03:31.239Z,92.40
2023-08-16T16:05:58.496Z,92.80
2023-08-16T16:08:25.772Z,94.10
2023-08-16T16:10:52.648Z,92.80
2023-08-16T16:13:19.461Z,93.40
2023-08-16T16:15:47.331Z,93.70
2023-08-16T16:18:14.255Z,93.40
2023-08-16T16:20:41.247Z,93.10
2023-08-16T16:23:08.245Z,93.20
2023-08-16T16:25:35.231Z,94.00
2023-08-16T16:28:02.452Z,94.60
2023-08-16T16:30:29.544Z,94.50
2023-08-16T16:32:56.637Z,94.00
2023-08-16T16:35:25.866Z,93.50
2023-08-16T16:37:53.094Z,93.90
2023-08-16T16:40:19.990Z,93.90
2023-08-16T16:42:47.714Z,94.10
2023-08-16T16:45:14.612Z,94.40
2023-08-16T16:47:41.799Z,94.60
2023-08-16T16:50:09.538Z,94.40
2023-08-16T16:52:37.390Z,94.70
2023-08-16T16:55:05.485Z,95.30
2023-08-16T16:57:33.888Z,94.90
2023-08-16T17:00:01.759Z,95.60
2023-08-16T17:02:29.003Z,96.50
2023-08-16T17:04:56.062Z,97.00
2023-08-16T17:07:23.012Z,97.20
2023-08-16T17:09:49.850Z,97.10
2023-08-16T17:12:16.881Z,97.40
2023-08-16T17:14:43.838Z,96.30
2023-08-16T17:17:11.148Z,96.50
2023-08-16T17:19:37.999Z,96.40
2023-08-16T17:22:06.321Z,96.40
2023-08-16T17:24:33.236Z,96.50
2023-08-16T17:27:00.296Z,96.50
2023-08-16T17:29:27.415Z,97.00
2023-08-16T17:31:54.298Z,96.60
2023-08-16T17:34:21.699Z,97.60
2023-08-16T17:36:48.590Z,97.40
2023-08-16T17:39:15.306Z,97.00
2023-08-16T17:41:42.170Z,97.20
2023-08-16T17:44:09.535Z,97.40
2023-08-16T17:46:36.465Z,96.90
2023-08-16T17:49:03.387Z,97.20
2023-08-16T17:51:30.222Z,97.90
2023-08-16T17:53:56.937Z,98.30
2023-08-16T17:56:23.609Z,98.20
2023-08-16T17:58:50.424Z,98.50
2023-08-16T18:01:17.283Z,98.30
2023-08-16T18:03:44.188Z,98.20
2023-08-16T18:06:11.009Z,98.70
2023-08-16T18:08:37.857Z,99.30
2023-08-16T18:11:04.679Z,99.50
2023-08-16T18:13:31.734Z,99.60
2023-08-16T18:15:58.593Z,99.90
2023-08-16T18:18:25.929Z,99.90
2023-08-16T18:20:56.339Z,99.90
2023-08-16T18:23:23.594Z,99.90
2023-08-16T18:25:50.804Z,99.90
2023-08-16T18:28:20.152Z,99.90
2023-08-16T18:30:49.998Z,99.90
2023-08-16T18:33:17.061Z,99.90
2023-08-16T18:35:44.094Z,99.90
2023-08-16T18:38:11.040Z,99.90
2023-08-16T18:40:37.880Z,99.90
2023-08-16T18:43:04.737Z,99.90
2023-08-16T18:45:31.583Z,99.90
2023-08-16T18:47:58.412Z,99.90
2023-08-16T18:50:27.551Z,99.90
2023-08-16T18:52:56.547Z,99.90
2023-08-16T18:55:23.426Z,99.90
2023-08-16T18:57:50.301Z,99.90
2023-08-16T19:00:17.386Z,99.90
2023-08-16T19:02:44.088Z,99.90
2023-08-16T19:05:10.986Z,99.90
2023-08-16T19:07:37.823Z,99.90
2023-08-16T19:10:05.210Z,99.90
2023-08-16T19:12:32.254Z,99.90
2023-08-16T19:14:59.196Z,99.90
2023-08-16T19:17:26.345Z,99.90
2023-08-16T19:19:54.147Z,99.90
2023-08-16T19:22:21.080Z,99.90
2023-08-16T19:24:47.944Z,99.90
2023-08-16T19:27:16.424Z,99.90
2023-08-16T19:29:43.234Z,99.90
2023-08-16T19:32:10.008Z,99.90
2023-08-16T19:34:37.021Z,99.90
2023-08-16T19:37:03.995Z,99.90
2023-08-16T19:39:31.224Z,99.90
2023-08-16T19:41:58.152Z,99.90
2023-08-16T19:44:24.934Z,99.90
2023-08-16T19:46:51.710Z,99.90
2023-08-16T19:49:18.882Z,99.90
2023-08-16T19:51:45.648Z,99.90
2023-08-16T19:54:12.411Z,99.90
2023-08-16T19:56:39.491Z,99.90
2023-08-16T19:59:06.369Z,99.90
2023-08-16T20:01:34.671Z,99.90
2023-08-16T20:04:03.100Z,99.90
2023-08-16T20:06:30.137Z,99.90
2023-08-16T20:08:56.963Z,99.90
2023-08-16T20:11:23.799Z,99.90
2023-08-16T20:13:50.604Z,99.90
2023-08-16T20:16:17.349Z,99.90
2023-08-16T20:54:39.752Z,99.90
2023-08-16T20:57:06.641Z,99.90
2023-08-16T20:59:33.446Z,99.90
2023-08-16T21:02:00.257Z,99.90
2023-08-16T21:04:27.028Z,99.90
2023-08-16T21:06:53.798Z,99.90
2023-08-16T21:09:20.528Z,99.90
2023-08-16T21:11:47.248Z,99.90
2023-08-16T21:14:14.096Z,99.90
2023-08-16T21:16:41.005Z,99.90
2023-08-16T21:19:08.019Z,99.90
2023-08-16T21:21:35.054Z,99.90
2023-08-16T21:24:01.910Z,99.90
2023-08-16T21:26:28.791Z,99.90
2023-08-16T21:28:55.612Z,99.90
2023-08-16T21:31:22.596Z,99.90
2023-08-16T21:33:49.495Z,99.90
2023-08-16T21:36:16.384Z,99.90
2023-08-16T21:38:43.128Z,99.90
2023-08-16T21:41:09.887Z,99.90
2023-08-16T21:43:36.651Z,99.90
2023-08-16T21:46:03.528Z,99.90
2023-08-16T21:48:30.484Z,99.90
2023-08-16T21:50:57.248Z,99.90
2023-08-16T21:53:24.113Z,99.90
2023-08-16T21:55:53.640Z,99.90
2023-08-16T21:58:23.081Z,99.90
2023-08-16T22:00:50.201Z,99.90
2023-08-16T22:03:17.228Z,99.90
2023-08-16T22:05:44.004Z,99.90
2023-08-16T22:08:12.140Z,99.90
2023-08-16T22:10:38.920Z,99.90
2023-08-16T22:13:05.724Z,99.90
2023-08-16T22:15:32.604Z,99.90
2023-08-16T22:17:59.383Z,99.90
2023-08-16T22:20:26.363Z,99.90
2023-08-16T22:22:53.184Z,99.90
2023-08-16T22:25:20.915Z,99.90
2023-08-16T22:27:48.215Z,99.90
2023-08-16T22:30:15.614Z,99.90
2023-08-16T22:32:42.427Z,99.90
2023-08-16T22:35:09.690Z,99.90
2023-08-16T22:37:36.546Z,99.90
2023-08-16T22:40:03.689Z,99.90
2023-08-16T22:45:20.335Z,99.90
2023-08-16T22:47:47.317Z,99.90
2023-08-16T22:50:14.105Z,99.90
2023-08-16T22:52:41.566Z,99.90
2023-08-16T22:55:08.564Z,99.90
2023-08-16T22:57:35.384Z,99.90
2023-08-16T23:00:02.714Z,99.90
2023-08-16T23:02:29.458Z,99.90
2023-08-16T23:04:56.399Z,99.90
2023-08-16T23:07:23.403Z,99.90
2023-08-16T23:09:50.315Z,99.90
2023-08-16T23:12:17.066Z,99.90
2023-08-16T23:14:43.807Z,99.90
2023-08-16T23:17:10.524Z,99.90
2023-08-16T23:19:37.280Z,99.90
2023-08-16T23:22:04.084Z,99.90
2023-08-16T23:24:31.486Z,99.90
2023-08-16T23:26:58.405Z,99.90
2023-08-16T23:29:25.365Z,99.90
2023-08-16T23:31:52.154Z,99.90
2023-08-16T23:34:18.916Z,99.90
2023-08-16T23:36:45.796Z,99.90
2023-08-16T23:39:12.532Z,99.90
2023-08-16T23:41:39.281Z,99.90
2023-08-16T23:44:06.270Z,99.90
2023-08-16T23:46:33.219Z,99.90
2023-08-16T23:49:00.065Z,99.90
2023-08-16T23:51:26.891Z,99.90
2023-08-16T23:53:53.647Z,99.90
2023-08-16T23:56:20.465Z,99.90
2023-08-16T23:58:47.247Z,99.90
